Time;durP1;ratioP1;P1;durP2;ratioP2;P2;SDS_P1;SDS_P2;PMS_P1;PMS_P2;Temp;Humidity;BMP_temperature;BMP_pressure;BME280_temperature;BME280_humidity;BME280_pressure;Samples;Min_cycle;Max_cycle;Signal;HPM_P1;HPM_P2
2022/07/12 00:00:57;;;;;;;2.70;1.45;;;16.50;99.90;;;;;;5093723;28;20112;-69
2022/07/12 00:03:23;;;;;;;3.05;1.60;;;16.40;99.90;;;;;;5075801;28;20055;-69
2022/07/12 00:05:49;;;;;;;3.67;1.45;;;16.40;99.90;;;;;;5072563;28;20063;-70
2022/07/12 00:08:14;;;;;;;2.58;1.50;;;16.40;99.90;;;;;;5059869;28;20063;-69
2022/07/12 00:10:40;;;;;;;2.65;1.50;;;16.40;99.90;;;;;;5059651;28;20043;-69
2022/07/12 00:13:06;;;;;;;2.70;1.50;;;16.40;99.90;;;;;;5077681;28;20044;-69
2022/07/12 00:15:31;;;;;;;2.67;1.50;;;16.50;99.90;;;;;;5077446;28;20040;-69
2022/07/12 00:17:57;;;;;;;3.22;1.90;;;16.40;99.90;;;;;;5059379;28;20091;-69
2022/07/12 00:20:22;;;;;;;2.55;1.58;;;16.40;99.90;;;;;;5091204;28;20047;-69
2022/07/12 00:22:48;;;;;;;2.75;1.55;;;16.40;99.90;;;;;;5069957;28;20048;-70
2022/07/12 00:25:14;;;;;;;2.72;1.65;;;16.30;99.90;;;;;;5077883;28;20145;-70
2022/07/12 00:27:40;;;;;;;2.35;1.40;;;16.40;99.90;;;;;;5059317;28;20040;-69
2022/07/12 00:30:07;;;;;;;2.90;1.60;;;16.30;99.90;;;;;;5059488;28;20056;-70
2022/07/12 00:32:33;;;;;;;2.70;1.40;;;16.20;99.90;;;;;;5059588;28;20040;-70
2022/07/12 00:34:59;;;;;;;3.78;1.85;;;16.20;99.90;;;;;;5059212;28;20113;-69
2022/07/12 00:37:25;;;;;;;3.10;1.60;;;16.20;99.90;;;;;;5059236;28;20418;-69
2022/07/12 00:39:51;;;;;;;3.90;1.70;;;16.10;99.90;;;;;;5059448;28;20445;-70
2022/07/12 00:42:16;;;;;;;3.88;1.75;;;16.10;99.90;;;;;;5059224;28;20445;-69
2022/07/12 00:44:42;;;;;;;3.45;1.90;;;16.10;99.90;;;;;;5077312;28;20051;-69
2022/07/12 00:47:16;;;;;;;2.45;1.40;;;16.10;99.90;;;;;;5076832;28;20044;-69
2022/07/12 00:49:41;;;;;;;2.60;1.55;;;16.00;99.90;;;;;;5066746;28;20048;-69
2022/07/12 00:52:07;;;;;;;3.42;1.60;;;16.10;99.90;;;;;;5079323;28;20122;-69
2022/07/12 00:54:32;;;;;;;3.45;2.10;;;16.00;99.90;;;;;;5096771;28;20048;-69
2022/07/12 00:56:59;;;;;;;3.40;2.05;;;16.00;99.90;;;;;;5079264;28;20081;-69
2022/07/12 00:59:24;;;;;;;2.85;1.73;;;15.90;99.90;;;;;;5078808;28;20085;-70
2022/07/12 01:01:50;;;;;;;4.43;1.90;;;15.90;99.90;;;;;;5079529;28;20130;-70
2022/07/12 01:04:18;;;;;;;4.28;2.30;;;15.90;99.90;;;;;;5074124;28;20048;-70
2022/07/12 01:06:43;;;;;;;5.75;2.25;;;15.90;99.90;;;;;;5076275;28;20445;-69
2022/07/12 01:09:10;;;;;;;3.30;2.00;;;15.90;99.90;;;;;;5058939;28;20059;-69
2022/07/12 01:11:36;;;;;;;3.75;2.22;;;15.90;99.90;;;;;;5058447;28;20056;-69
2022/07/12 01:14:02;;;;;;;3.60;2.30;;;15.90;99.90;;;;;;5075944;28;20044;-70
2022/07/12 01:16:30;;;;;;;5.47;2.50;;;15.80;99.90;;;;;;5076080;28;20055;-69
2022/07/12 01:18:56;;;;;;;3.38;2.17;;;15.80;99.90;;;;;;5064105;28;20040;-69
2022/07/12 01:21:22;;;;;;;4.78;2.53;;;15.80;99.90;;;;;;5073830;28;20058;-69
2022/07/12 01:23:49;;;;;;;4.80;2.60;;;15.80;99.90;;;;;;5059130;28;20148;-70
2022/07/12 01:26:15;;;;;;;4.22;2.80;;;15.80;99.90;;;;;;5058986;28;20052;-70
2022/07/12 01:28:41;;;;;;;5.03;2.60;;;15.90;99.90;;;;;;5058558;28;20346;-69
2022/07/12 01:31:07;;;;;;;3.65;2.10;;;15.90;99.90;;;;;;5059174;28;20056;-69
2022/07/12 01:33:33;;;;;;;3.47;2.13;;;15.80;99.90;;;;;;5075635;28;20040;-69
2022/07/12 01:36:00;;;;;;;3.97;2.15;;;15.80;99.90;;;;;;5057803;28;20128;-69
2022/07/12 01:38:25;;;;;;;3.78;2.00;;;15.80;99.90;;;;;;5041837;28;20166;-69
2022/07/12 01:40:51;;;;;;;4.38;2.42;;;15.70;99.90;;;;;;5041643;28;20056;-70
2022/07/12 01:43:17;;;;;;;4.07;2.47;;;15.80;99.90;;;;;;5058015;28;20369;-69
2022/07/12 01:45:43;;;;;;;4.20;2.20;;;15.80;99.90;;;;;;5075688;28;20040;-70
2022/07/12 01:48:08;;;;;;;5.18;2.42;;;15.80;99.90;;;;;;5075314;28;20044;-70
2022/07/12 01:50:35;;;;;;;5.65;2.78;;;15.80;99.90;;;;;;5073540;28;20049;-69
2022/07/12 01:53:04;;;;;;;4.07;2.40;;;15.80;99.90;;;;;;5057394;28;20063;-70
2022/07/12 01:55:31;;;;;;;5.22;2.45;;;15.90;99.90;;;;;;5058749;28;20452;-70
2022/07/12 01:57:57;;;;;;;4.60;2.70;;;15.80;99.90;;;;;;5076156;28;20462;-70
2022/07/12 02:00:23;;;;;;;10.00;2.58;;;15.80;99.90;;;;;;5057550;28;20449;-69
2022/07/12 02:02:48;;;;;;;5.10;2.58;;;15.80;99.90;;;;;;5057306;28;20059;-70
2022/07/12 02:05:14;;;;;;;4.10;2.38;;;15.80;99.90;;;;;;5075533;28;20044;-69
2022/07/12 02:07:40;;;;;;;3.50;2.15;;;15.80;99.90;;;;;;5057601;28;20052;-70
2022/07/12 02:10:07;;;;;;;9.70;2.75;;;15.80;99.90;;;;;;5057572;28;20449;-69
2022/07/12 02:12:33;;;;;;;5.20;2.40;;;15.70;99.90;;;;;;5057528;28;20041;-69
2022/07/12 02:15:00;;;;;;;4.40;2.53;;;15.80;99.90;;;;;;5058148;28;20406;-70
2022/07/12 02:17:25;;;;;;;4.60;2.83;;;15.70;99.90;;;;;;5057260;28;20169;-69
2022/07/12 02:19:51;;;;;;;4.20;2.90;;;15.70;99.90;;;;;;5075192;28;20062;-70
2022/07/12 02:22:16;;;;;;;6.03;2.83;;;15.70;99.90;;;;;;5057514;28;20461;-69
2022/07/12 02:24:42;;;;;;;4.68;2.50;;;15.70;99.90;;;;;;5057217;28;20044;-70
2022/07/12 02:27:08;;;;;;;4.55;2.53;;;15.60;99.90;;;;;;5077340;28;20395;-69
2022/07/12 02:29:35;;;;;;;5.13;2.53;;;15.70;99.90;;;;;;5078438;28;20044;-70
2022/07/12 02:32:00;;;;;;;3.38;1.95;;;15.60;99.90;;;;;;5095422;28;20364;-70
2022/07/12 02:34:26;;;;;;;4.13;2.35;;;15.70;99.90;;;;;;5059759;28;20067;-69
2022/07/12 02:36:52;;;;;;;4.95;3.03;;;15.60;99.90;;;;;;5077403;28;20126;-69
2022/07/12 02:39:17;;;;;;;4.45;2.60;;;15.70;99.90;;;;;;5077755;28;20086;-69
2022/07/12 02:41:43;;;;;;;4.25;2.70;;;15.80;99.90;;;;;;5076101;28;20055;-70
2022/07/12 02:44:08;;;;;;;4.78;2.85;;;15.80;99.90;;;;;;5066711;28;20360;-70
2022/07/12 02:46:35;;;;;;;4.47;2.40;;;15.80;99.90;;;;;;5075072;28;20129;-70
2022/07/12 02:49:00;;;;;;;3.92;2.45;;;15.80;99.90;;;;;;5056970;28;20052;-70
2022/07/12 02:51:26;;;;;;;3.65;2.10;;;15.80;99.90;;;;;;5057782;28;20051;-70
2022/07/12 02:53:52;;;;;;;4.00;2.60;;;15.70;99.90;;;;;;5057175;28;20101;-69
2022/07/12 02:56:17;;;;;;;4.40;2.53;;;15.70;99.90;;;;;;5057840;28;20072;-69
2022/07/12 02:58:43;;;;;;;4.60;2.85;;;15.60;99.90;;;;;;5057164;28;20103;-69
2022/07/12 03:01:08;;;;;;;4.65;2.70;;;15.60;99.90;;;;;;5057106;28;20053;-70
2022/07/12 03:03:34;;;;;;;8.05;3.17;;;15.60;99.90;;;;;;5074754;28;20044;-70
2022/07/12 03:06:00;;;;;;;6.88;2.78;;;15.50;99.90;;;;;;5075452;28;20059;-69
2022/07/12 03:08:26;;;;;;;4.60;2.80;;;15.50;99.90;;;;;;5074574;28;20117;-69
2022/07/12 03:10:51;;;;;;;6.00;2.97;;;15.40;99.90;;;;;;5057652;28;20415;-70
2022/07/12 03:13:17;;;;;;;5.20;3.50;;;15.50;99.90;;;;;;5074348;28;20040;-69
2022/07/12 03:15:45;;;;;;;5.03;3.03;;;15.40;99.90;;;;;;5057321;28;20369;-69
2022/07/12 03:18:11;;;;;;;4.78;2.80;;;15.50;99.90;;;;;;5056895;28;20052;-69
2022/07/12 03:20:37;;;;;;;5.95;3.45;;;15.50;99.90;;;;;;5074435;28;20037;-70
2022/07/12 03:23:02;;;;;;;5.72;3.75;;;15.40;99.90;;;;;;5057175;28;20153;-69
2022/07/12 03:25:28;;;;;;;7.65;3.58;;;15.50;99.90;;;;;;5075033;28;20144;-70
2022/07/12 03:27:54;;;;;;;5.18;3.35;;;15.40;99.90;;;;;;5057667;28;20051;-69
2022/07/12 03:30:19;;;;;;;5.70;3.47;;;15.40;99.90;;;;;;5061088;28;20063;-69
2022/07/12 03:32:45;;;;;;;6.03;3.58;;;15.40;99.90;;;;;;5060255;28;20063;-69
2022/07/12 03:35:11;;;;;;;6.97;3.20;;;15.40;99.90;;;;;;5060467;28;20041;-69
2022/07/12 03:37:47;;;;;;;6.43;3.17;;;15.30;99.90;;;;;;5060851;28;20059;-69
2022/07/12 03:40:14;;;;;;;5.97;3.63;;;15.40;99.90;;;;;;5077795;28;20449;-69
2022/07/12 03:42:41;;;;;;;5.28;3.35;;;15.40;99.90;;;;;;5060432;28;20126;-70
2022/07/12 03:45:07;;;;;;;5.75;3.38;;;15.40;99.90;;;;;;5060679;28;20066;-69
2022/07/12 03:47:34;;;;;;;5.88;3.50;;;15.40;99.90;;;;;;5065679;28;20052;-69
2022/07/12 03:50:02;;;;;;;5.97;3.85;;;15.40;99.90;;;;;;5080624;28;20448;-69
2022/07/12 03:52:27;;;;;;;6.57;3.60;;;15.30;99.90;;;;;;5079975;28;20044;-70
2022/07/12 03:54:53;;;;;;;5.85;3.17;;;15.30;99.90;;;;;;5097890;28;20050;-69
2022/07/12 03:57:18;;;;;;;6.32;3.47;;;15.30;99.90;;;;;;5098061;28;20048;-70
2022/07/12 03:59:45;;;;;;;5.70;3.75;;;15.30;99.90;;;;;;5060304;28;20040;-69
2022/07/12 04:02:13;;;;;;;18.77;3.88;;;15.20;99.90;;;;;;5075145;28;20036;-70
2022/07/12 04:04:39;;;;;;;6.43;4.65;;;15.20;99.90;;;;;;5060067;28;20040;-70
2022/07/12 04:07:05;;;;;;;9.63;3.83;;;15.20;99.90;;;;;;5076680;28;20468;-69
2022/07/12 04:09:31;;;;;;;18.00;3.33;;;15.20;99.90;;;;;;5059525;28;20063;-70
2022/07/12 04:11:56;;;;;;;9.73;3.50;;;15.20;99.90;;;;;;5059433;28;20048;-70
2022/07/12 04:14:22;;;;;;;11.68;3.83;;;15.20;99.90;;;;;;5046828;28;20094;-70
2022/07/12 04:16:47;;;;;;;6.32;3.60;;;15.10;99.90;;;;;;5072588;28;20483;-70
2022/07/12 04:19:13;;;;;;;12.23;3.92;;;15.10;99.90;;;;;;5063397;28;20046;-69
2022/07/12 04:21:39;;;;;;;6.40;3.90;;;15.20;99.90;;;;;;5059932;28;20456;-70
2022/07/12 04:24:05;;;;;;;8.68;4.03;;;15.10;99.90;;;;;;5060021;28;20052;-70
2022/07/12 04:26:31;;;;;;;6.65;3.90;;;15.20;99.90;;;;;;5077260;28;20431;-70
2022/07/12 04:28:57;;;;;;;31.38;5.63;;;15.20;99.90;;;;;;5060032;28;20051;-70
2022/07/12 04:31:23;;;;;;;12.70;4.22;;;15.20;99.90;;;;;;5059384;28;20419;-69
2022/07/12 04:33:49;;;;;;;10.65;4.65;;;15.20;99.90;;;;;;5059497;28;20040;-69
2022/07/12 04:36:14;;;;;;;8.23;4.00;;;15.20;99.90;;;;;;5059847;28;20368;-69
2022/07/12 04:38:40;;;;;;;15.55;4.45;;;15.30;99.90;;;;;;5064534;28;20052;-68
2022/07/12 04:41:06;;;;;;;8.23;4.03;;;15.30;99.90;;;;;;5058586;28;20048;-68
2022/07/12 04:43:31;;;;;;;7.18;3.80;;;15.30;99.90;;;;;;5059229;28;20456;-67
2022/07/12 04:46:08;;;;;;;9.75;4.60;;;15.30;99.90;;;;;;5076944;28;20040;-68
2022/07/12 04:48:34;;;;;;;5.78;3.75;;;15.40;99.90;;;;;;5058967;28;20544;-67
2022/07/12 04:51:00;;;;;;;6.93;4.22;;;15.50;99.90;;;;;;5059506;28;20190;-68
2022/07/12 04:53:26;;;;;;;7.28;4.38;;;15.50;99.90;;;;;;5062791;28;20127;-67
2022/07/12 04:55:54;;;;;;;6.28;4.10;;;15.60;99.90;;;;;;5097224;28;20048;-68
2022/07/12 04:58:19;;;;;;;6.97;3.92;;;15.60;99.90;;;;;;5079175;28;20126;-68
2022/07/12 05:00:45;;;;;;;7.93;4.07;;;15.80;99.90;;;;;;5074422;28;20124;-68
2022/07/12 05:03:10;;;;;;;6.70;3.47;;;15.80;99.90;;;;;;5058990;28;20198;-70
2022/07/12 05:05:37;;;;;;;5.93;3.53;;;15.90;99.90;;;;;;5058834;28;20044;-70
2022/07/12 05:08:04;;;;;;;4.43;3.17;;;16.00;99.90;;;;;;5076896;28;20058;-70
2022/07/12 05:10:30;;;;;;;6.60;3.05;;;15.90;99.90;;;;;;5059040;28;20514;-70
2022/07/12 05:12:55;;;;;;;5.75;3.25;;;15.90;99.90;;;;;;5076307;28;20055;-70
2022/07/12 05:15:21;;;;;;;5.78;3.03;;;15.90;99.90;;;;;;5075850;28;20036;-70
2022/07/12 05:17:47;;;;;;;5.72;3.08;;;15.90;99.90;;;;;;5058736;28;20044;-70
2022/07/12 05:20:13;;;;;;;6.00;3.58;;;15.90;99.90;;;;;;5075974;28;20037;-70
2022/07/12 05:22:41;;;;;;;5.25;3.40;;;15.90;99.90;;;;;;5076046;28;20365;-70
2022/07/12 05:25:07;;;;;;;4.57;3.05;;;15.90;99.90;;;;;;5060003;28;20109;-71
2022/07/12 05:27:32;;;;;;;6.13;3.50;;;16.00;99.90;;;;;;5081855;28;20377;-71
2022/07/12 05:29:58;;;;;;;5.50;3.38;;;16.10;99.90;;;;;;5071082;28;20049;-71
2022/07/12 05:32:24;;;;;;;4.80;3.15;;;16.60;99.90;;;;;;5078839;28;20131;-69
2022/07/12 05:34:49;;;;;;;5.65;3.45;;;17.30;99.90;;;;;;5086089;28;20040;-69
2022/07/12 05:37:15;;;;;;;4.75;2.83;;;18.20;99.90;;;;;;5075616;28;20041;-70
2022/07/12 05:39:41;;;;;;;4.72;2.65;;;19.00;99.90;;;;;;5075738;28;20080;-70
2022/07/12 05:42:06;;;;;;;4.28;2.50;;;19.80;99.90;;;;;;5087663;28;20032;-69
2022/07/12 05:44:32;;;;;;;3.65;2.25;;;19.90;99.90;;;;;;5067255;28;20098;-69
2022/07/12 05:46:57;;;;;;;3.58;2.28;;;19.90;99.90;;;;;;5083330;28;20036;-68
2022/07/12 05:49:23;;;;;;;3.67;1.90;;;19.90;99.90;;;;;;5058031;28;20041;-69
2022/07/12 05:54:33;;;;;;;3.75;1.95;;;20.00;99.90;;;;;;5077741;28;20448;-70
2022/07/12 05:56:58;;;;;;;3.67;1.80;;;20.10;99.90;;;;;;5065209;28;20190;-71
2022/07/12 05:59:24;;;;;;;3.33;1.90;;;20.00;99.90;;;;;;5057225;28;20483;-72
2022/07/12 06:01:49;;;;;;;3.05;1.63;;;19.90;99.90;;;;;;5084936;28;20045;-70
2022/07/12 06:04:15;;;;;;;3.50;1.65;;;19.70;99.90;;;;;;5064618;28;20057;-72
2022/07/12 06:06:40;;;;;;;3.08;1.50;;;19.50;99.90;;;;;;5061569;28;20045;-72
2022/07/12 06:09:06;;;;;;;3.03;1.80;;;19.60;99.90;;;;;;5076274;28;20442;-72
2022/07/12 06:11:33;;;;;;;3.35;1.65;;;19.70;99.90;;;;;;5066840;28;20449;-71
2022/07/12 06:13:59;;;;;;;3.20;1.85;;;19.80;99.90;;;;;;5066276;28;20474;-72
2022/07/12 06:16:25;;;;;;;4.07;1.52;;;20.10;99.90;;;;;;5068609;28;20464;-72
2022/07/12 06:18:50;;;;;;;2.90;1.88;;;20.10;99.90;;;;;;5075049;28;20037;-72
2022/07/12 06:21:16;;;;;;;3.10;1.60;;;20.20;99.90;;;;;;5061316;28;20044;-72
2022/07/12 06:23:41;;;;;;;3.00;1.70;;;20.30;99.90;;;;;;5072641;28;20085;-73
2022/07/12 06:26:07;;;;;;;3.22;1.67;;;20.40;99.90;;;;;;5058680;28;20045;-71
2022/07/12 06:28:33;;;;;;;3.53;2.08;;;20.20;99.90;;;;;;5089512;28;20405;-73
2022/07/12 06:30:58;;;;;;;2.50;1.33;;;20.20;99.90;;;;;;5064727;28;20041;-74
2022/07/12 06:33:24;;;;;;;3.47;1.67;;;20.40;99.90;;;;;;5064995;28;20512;-72
2022/07/12 06:35:50;;;;;;;3.08;1.80;;;20.30;99.90;;;;;;5058047;28;20044;-73
2022/07/12 06:38:16;;;;;;;2.67;1.35;;;20.40;99.90;;;;;;5056847;28;20048;-74
2022/07/12 06:40:41;;;;;;;5.32;1.60;;;20.60;99.90;;;;;;5074480;28;20037;-73
2022/07/12 06:43:11;;;;;;;3.22;1.67;;;20.70;99.90;;;;;;5074340;28;20064;-73
2022/07/12 06:45:37;;;;;;;5.95;1.52;;;20.80;99.90;;;;;;5079344;28;20374;-75
2022/07/12 06:48:04;;;;;;;3.47;1.85;;;21.00;99.90;;;;;;5075748;28;20055;-75
2022/07/12 06:50:30;;;;;;;2.90;1.73;;;21.20;99.90;;;;;;5071729;28;20048;-73
2022/07/12 06:52:56;;;;;;;2.17;1.33;;;21.30;99.90;;;;;;5084659;28;20136;-74
2022/07/12 06:55:22;;;;;;;2.60;1.52;;;21.70;99.90;;;;;;5072010;28;20076;-75
2022/07/12 06:57:48;;;;;;;3.58;2.10;;;21.80;99.90;;;;;;5062491;28;20068;-73
2022/07/12 07:00:13;;;;;;;5.32;1.50;;;22.00;99.90;;;;;;5040012;28;20041;-73
2022/07/12 07:02:39;;;;;;;3.00;1.40;;;22.30;99.90;;;;;;5065032;28;20113;-74
2022/07/12 07:05:06;;;;;;;2.70;1.50;;;22.50;99.90;;;;;;5081401;28;20040;-73
2022/07/12 07:07:31;;;;;;;5.25;1.50;;;22.80;99.90;;;;;;5071162;28;20043;-72
2022/07/12 07:09:57;;;;;;;2.38;1.48;;;23.00;99.90;;;;;;5088529;28;20036;-73
2022/07/12 07:12:23;;;;;;;3.20;1.63;;;23.30;99.90;;;;;;5080989;28;20565;-73
2022/07/12 07:14:49;;;;;;;2.40;1.30;;;23.90;99.90;;;;;;5085134;28;20044;-71
2022/07/12 07:17:19;;;;;;;3.00;1.70;;;24.80;99.90;;;;;;5076573;28;20053;-72
2022/07/12 07:19:45;;;;;;;2.65;1.58;;;25.60;99.90;;;;;;5077885;28;20464;-72
2022/07/12 07:22:11;;;;;;;2.28;1.30;;;25.80;99.90;;;;;;5067028;28;20087;-72
2022/07/12 07:24:37;;;;;;;2.85;1.33;;;26.20;99.90;;;;;;5068274;28;20120;-71
2022/07/12 07:27:03;;;;;;;2.78;1.60;;;26.00;99.90;;;;;;5060694;28;20131;-71
2022/07/12 07:32:13;;;;;;;2.47;1.42;;;26.20;99.90;;;;;;5060314;28;20052;-70
2022/07/12 07:34:38;;;;;;;2.42;1.45;;;26.90;99.90;;;;;;5065046;28;20048;-70
2022/07/12 07:37:04;;;;;;;3.58;1.38;;;27.30;99.90;;;;;;5060313;28;20129;-72
2022/07/12 07:39:30;;;;;;;2.70;1.50;;;28.30;99.90;;;;;;5077902;28;20045;-72
2022/07/12 07:41:55;;;;;;;3.53;1.80;;;28.50;99.90;;;;;;5059722;28;20044;-72
2022/07/12 07:44:21;;;;;;;1.77;1.10;;;28.70;99.90;;;;;;5078147;28;20045;-71
2022/07/12 07:46:47;;;;;;;2.95;1.23;;;29.30;99.90;;;;;;5077841;28;20369;-73
2022/07/12 07:49:13;;;;;;;2.47;1.40;;;29.90;99.90;;;;;;5043768;28;20048;-71
2022/07/12 07:51:39;;;;;;;3.55;1.40;;;30.00;99.00;;;;;;5071108;28;20508;-71
2022/07/12 07:54:04;;;;;;;2.25;1.05;;;29.90;99.70;;;;;;5050345;28;20045;-72
2022/07/12 07:56:30;;;;;;;1.75;1.02;;;30.00;99.80;;;;;;5047375;28;20057;-71
2022/07/12 07:58:56;;;;;;;1.70;0.93;;;30.30;99.90;;;;;;5054297;28;20048;-71
2022/07/12 08:01:42;;;;;;;2.30;1.27;;;31.00;99.30;;;;;;5055511;28;20483;-70
2022/07/12 08:04:08;;;;;;;2.45;1.20;;;31.10;98.40;;;;;;5061296;28;20044;-70
2022/07/12 08:06:34;;;;;;;1.75;0.85;;;30.70;97.50;;;;;;5061819;28;20132;-71
2022/07/12 08:09:00;;;;;;;2.28;1.20;;;30.80;98.60;;;;;;5048690;28;20051;-72
2022/07/12 08:11:26;;;;;;;2.33;1.20;;;30.80;98.10;;;;;;5053658;28;20357;-70
2022/07/12 08:13:51;;;;;;;1.23;0.82;;;30.70;98.30;;;;;;5039628;28;20498;-70
2022/07/12 08:16:17;;;;;;;3.45;1.20;;;31.00;98.40;;;;;;5053550;28;20098;-71
2022/07/12 08:18:42;;;;;;;4.47;1.10;;;31.20;97.60;;;;;;5056703;28;20052;-69
2022/07/12 08:21:08;;;;;;;1.10;0.80;;;31.30;98.60;;;;;;5056577;28;20053;-72
2022/07/12 08:23:34;;;;;;;1.23;0.75;;;31.50;98.10;;;;;;5072364;28;20045;-75
2022/07/12 08:26:00;;;;;;;1.50;0.90;;;31.40;97.60;;;;;;5042644;28;20078;-73
2022/07/12 08:28:25;;;;;;;1.90;0.90;;;31.60;98.30;;;;;;5059468;28;20354;-72
2022/07/12 08:30:51;;;;;;;1.88;0.80;;;31.30;97.20;;;;;;5077220;28;20056;-72
2022/07/12 08:33:16;;;;;;;1.45;0.80;;;31.00;97.50;;;;;;5059349;28;20044;-72
2022/07/12 08:35:43;;;;;;;1.25;0.80;;;30.90;98.00;;;;;;5059215;28;20059;-71
2022/07/12 08:38:09;;;;;;;0.90;0.60;;;30.80;98.30;;;;;;5055300;28;20048;-72
2022/07/12 08:40:36;;;;;;;2.35;1.10;;;30.40;98.50;;;;;;5044880;28;20052;-73
2022/07/12 08:43:01;;;;;;;1.77;1.05;;;29.90;97.90;;;;;;5059168;28;20489;-74
2022/07/12 08:45:27;;;;;;;2.10;1.10;;;29.70;98.30;;;;;;5076999;28;20044;-71
2022/07/12 08:47:53;;;;;;;1.02;0.80;;;29.50;98.80;;;;;;5058948;28;20449;-72
2022/07/12 08:50:20;;;;;;;2.30;1.10;;;29.60;99.30;;;;;;5059136;28;20094;-72
2022/07/12 08:52:53;;;;;;;2.50;1.08;;;29.20;98.40;;;;;;5065177;28;20056;-71
2022/07/12 08:55:30;;;;;;;1.58;1.02;;;28.70;98.90;;;;;;5074973;28;20052;-72
2022/07/12 08:57:58;;;;;;;2.28;0.88;;;28.60;98.40;;;;;;5058821;28;20091;-71
2022/07/12 09:00:26;;;;;;;1.95;0.98;;;28.20;99.50;;;;;;5076094;28;20088;-70
2022/07/12 09:02:54;;;;;;;2.30;1.33;;;28.30;99.90;;;;;;5059313;28;20041;-73
2022/07/12 09:05:24;;;;;;;2.28;1.10;;;28.30;99.90;;;;;;5076280;28;20037;-71
2022/07/12 09:07:51;;;;;;;1.65;0.90;;;28.50;99.90;;;;;;5067129;28;20047;-73
2022/07/12 09:10:17;;;;;;;2.28;1.20;;;28.70;99.90;;;;;;5066071;28;20045;-72
2022/07/12 09:12:44;;;;;;;3.92;1.20;;;28.70;99.60;;;;;;5076259;28;20437;-72
2022/07/12 09:15:17;;;;;;;2.22;1.02;;;28.80;99.50;;;;;;5076178;28;20056;-72
2022/07/12 09:17:58;;;;;;;2.97;1.35;;;29.00;99.60;;;;;;5058224;28;20044;-72
2022/07/12 09:20:36;;;;;;;5.53;1.60;;;29.30;99.70;;;;;;5058887;28;20044;-71
2022/07/12 09:23:07;;;;;;;3.58;1.13;;;29.30;98.70;;;;;;5076250;28;20048;-72
2022/07/12 09:25:33;;;;;;;3.25;1.40;;;29.20;99.30;;;;;;5057495;28;20095;-72
2022/07/12 09:28:03;;;;;;;2.17;1.15;;;29.00;99.10;;;;;;5076296;28;20041;-71
2022/07/12 09:30:29;;;;;;;2.20;1.50;;;29.10;99.40;;;;;;5058675;28;20094;-72
2022/07/12 09:36:06;;;;;;;2.00;1.08;;;28.40;99.50;;;;;;5058812;28;20087;-72
2022/07/12 09:38:34;;;;;;;2.28;1.20;;;28.40;99.60;;;;;;5058560;28;20079;-71
2022/07/12 09:41:00;;;;;;;1.98;1.13;;;28.30;99.90;;;;;;5057896;28;20052;-70
2022/07/12 09:43:27;;;;;;;4.47;1.40;;;28.10;99.90;;;;;;5075794;28;20055;-72
2022/07/12 09:45:53;;;;;;;2.63;1.50;;;28.10;99.90;;;;;;5075993;28;20382;-70
2022/07/12 09:48:23;;;;;;;1.80;1.05;;;27.90;99.70;;;;;;5057785;28;20119;-72
2022/07/12 09:50:50;;;;;;;2.58;1.33;;;27.80;99.90;;;;;;5041352;28;20131;-72
2022/07/12 09:53:21;;;;;;;2.00;1.10;;;27.60;99.90;;;;;;5047437;28;20049;-72
2022/07/12 09:55:49;;;;;;;2.67;1.05;;;27.80;99.90;;;;;;5038282;28;20121;-72
2022/07/12 09:58:23;;;;;;;3.30;1.13;;;28.00;99.90;;;;;;5056132;28;20102;-72
2022/07/12 10:00:52;;;;;;;2.85;1.50;;;28.20;99.90;;;;;;5037643;28;20095;-72
2022/07/12 10:03:20;;;;;;;3.20;1.40;;;28.20;99.90;;;;;;5055441;28;20048;-73
2022/07/12 10:05:46;;;;;;;3.97;1.60;;;28.20;99.60;;;;;;5055115;28;20048;-71
2022/07/12 10:08:13;;;;;;;2.30;1.20;;;28.00;99.60;;;;;;5051936;28;20033;-72
2022/07/12 10:10:39;;;;;;;2.20;1.40;;;27.90;99.90;;;;;;5057337;28;20041;-71
2022/07/12 10:13:04;;;;;;;2.80;1.33;;;27.90;99.90;;;;;;5075269;28;20041;-72
2022/07/12 10:15:32;;;;;;;3.40;1.48;;;27.90;99.70;;;;;;5075414;28;20040;-71
2022/07/12 10:18:00;;;;;;;2.58;1.40;;;28.20;99.90;;;;;;5041727;28;20084;-72
2022/07/12 10:20:27;;;;;;;4.88;1.65;;;28.20;99.80;;;;;;5074956;28;20056;-73
2022/07/12 10:23:13;;;;;;;2.35;1.35;;;28.30;99.70;;;;;;5053248;28;20124;-73
2022/07/12 10:25:39;;;;;;;4.65;1.33;;;28.20;99.40;;;;;;5037328;28;20084;-71
2022/07/12 10:28:04;;;;;;;2.72;1.17;;;28.30;99.90;;;;;;5037580;28;20170;-72
2022/07/12 10:30:30;;;;;;;3.28;1.50;;;28.50;99.90;;;;;;5038365;28;20060;-71
2022/07/12 10:32:59;;;;;;;3.00;1.70;;;28.30;98.80;;;;;;5037811;28;20037;-71
2022/07/12 10:35:27;;;;;;;3.35;0.98;;;28.20;98.80;;;;;;5021205;28;20045;-72
2022/07/12 10:38:11;;;;;;;1.60;0.82;;;28.30;99.40;;;;;;5053079;28;20053;-71
2022/07/12 10:40:37;;;;;;;1.75;0.93;;;28.60;99.80;;;;;;5075094;28;20154;-73
2022/07/12 10:43:03;;;;;;;1.42;0.88;;;28.90;99.40;;;;;;5057373;28;20083;-73
2022/07/12 10:45:49;;;;;;;1.40;0.95;;;29.20;99.60;;;;;;5074848;28;20113;-70
2022/07/12 10:48:15;;;;;;;2.55;1.00;;;29.30;98.50;;;;;;5057130;28;20075;-71
2022/07/12 10:53:18;;;;;;;2.33;1.35;;;29.70;99.10;;;;;;5065682;28;20058;-74
2022/07/12 10:56:06;;;;;;;1.10;0.65;;;29.70;98.70;;;;;;5094845;28;20047;-72
2022/07/12 10:58:33;;;;;;;1.48;0.70;;;29.80;98.60;;;;;;5094902;28;20047;-71
2022/07/12 11:01:02;;;;;;;1.35;0.70;;;29.60;98.10;;;;;;5077233;28;20110;-70
2022/07/12 11:03:37;;;;;;;2.50;0.70;;;29.70;98.30;;;;;;5077252;28;20052;-72
2022/07/12 11:06:03;;;;;;;3.47;0.90;;;29.90;98.60;;;;;;5076062;28;20043;-70
2022/07/12 11:08:30;;;;;;;1.40;0.80;;;30.00;97.50;;;;;;5057708;28;20484;-71
2022/07/12 11:10:57;;;;;;;1.30;0.60;;;30.10;97.10;;;;;;5056972;28;20055;-72
2022/07/12 11:13:24;;;;;;;0.73;0.60;;;30.10;98.20;;;;;;5074612;28;20089;-71
2022/07/12 11:16:02;;;;;;;1.17;0.70;;;30.20;96.90;;;;;;5074884;28;20198;-71
2022/07/12 11:18:31;;;;;;;0.82;0.57;;;30.00;97.30;;;;;;5074136;28;20037;-72
2022/07/12 11:20:58;;;;;;;2.78;0.63;;;30.10;98.10;;;;;;5056567;28;20469;-71
2022/07/12 11:23:28;;;;;;;0.70;0.55;;;30.20;98.00;;;;;;5075119;28;20045;-71
2022/07/12 11:25:58;;;;;;;1.60;0.70;;;30.40;97.40;;;;;;5056908;28;20044;-71
2022/07/12 11:28:25;;;;;;;0.82;0.50;;;30.60;96.60;;;;;;5056948;28;20048;-70
2022/07/12 11:30:51;;;;;;;2.10;0.73;;;30.40;97.00;;;;;;5057052;28;20052;-70
2022/07/12 11:33:17;;;;;;;0.60;0.50;;;30.00;97.50;;;;;;5064784;28;20448;-73
2022/07/12 11:35:47;;;;;;;0.77;0.60;;;30.10;97.70;;;;;;5094583;28;20040;-72
2022/07/12 11:38:13;;;;;;;1.52;0.77;;;30.00;97.10;;;;;;5077188;28;20465;-71
2022/07/12 11:40:38;;;;;;;1.10;0.70;;;30.00;97.40;;;;;;5094668;28;20164;-71
2022/07/12 11:43:05;;;;;;;1.48;0.50;;;30.00;97.80;;;;;;5094779;28;20389;-71
2022/07/12 11:45:34;;;;;;;2.08;0.60;;;30.00;97.40;;;;;;5076773;28;20143;-71
2022/07/12 11:48:03;;;;;;;1.05;0.60;;;30.20;97.80;;;;;;5068737;28;20123;-71
2022/07/12 11:50:29;;;;;;;1.02;0.60;;;30.30;97.10;;;;;;5060228;28;20058;-71
2022/07/12 11:52:55;;;;;;;0.98;0.60;;;30.50;97.00;;;;;;5077574;28;20064;-71
2022/07/12 11:55:21;;;;;;;0.52;0.50;;;30.60;95.50;;;;;;5060105;28;20053;-71
2022/07/12 11:57:47;;;;;;;0.50;0.50;;;30.60;96.50;;;;;;5060403;28;20053;-72
2022/07/12 12:00:22;;;;;;;0.80;0.50;;;30.60;95.90;;;;;;5059892;28;20467;-71
2022/07/12 12:02:52;;;;;;;3.38;0.60;;;30.60;95.20;;;;;;5068153;28;20401;-72
2022/07/12 12:05:19;;;;;;;1.40;0.70;;;30.80;96.50;;;;;;5077172;28;20035;-71
2022/07/12 12:07:45;;;;;;;4.15;0.60;;;30.80;95.50;;;;;;5063972;28;20048;-71
2022/07/12 12:10:17;;;;;;;1.45;0.50;;;30.70;95.50;;;;;;5077842;28;20502;-70
2022/07/12 12:12:51;;;;;;;;;;;30.80;95.60;;;;;;5078155;28;20036;-72
2022/07/12 12:15:19;;;;;;;1.50;0.50;;;30.90;95.80;;;;;;5077279;28;19971;-71
2022/07/12 12:17:51;;;;;;;3.70;0.60;;;30.80;95.10;;;;;;5077471;28;20097;-72
2022/07/12 12:20:18;;;;;;;;;;;30.60;94.30;;;;;;5060421;28;20080;-72
2022/07/12 12:22:46;;;;;;;0.68;0.55;;;30.60;96.30;;;;;;5059311;28;19920;-72
2022/07/12 12:25:13;;;;;;;0.80;0.50;;;30.80;95.70;;;;;;5059861;28;20044;-70
2022/07/12 12:27:45;;;;;;;1.45;0.70;;;30.90;95.00;;;;;;5077171;28;20037;-71
2022/07/12 12:30:12;;;;;;;0.60;0.40;;;31.00;94.30;;;;;;5060226;28;20056;-71
2022/07/12 12:32:51;;;;;;;1.27;0.50;;;31.00;94.50;;;;;;5060363;28;20052;-71
2022/07/12 12:35:20;;;;;;;1.08;0.40;;;30.90;94.30;;;;;;5059544;28;20361;-71
2022/07/12 12:37:56;;;;;;;2.47;1.20;;;30.80;94.20;;;;;;5076874;28;20091;-72
2022/07/12 12:40:24;;;;;;;1.05;0.50;;;30.70;94.20;;;;;;5059968;28;20472;-72
2022/07/12 12:42:50;;;;;;;2.75;0.98;;;30.80;95.00;;;;;;5059676;28;20048;-72
2022/07/12 12:45:24;;;;;;;0.85;0.50;;;30.80;94.80;;;;;;5059345;28;20059;-72
2022/07/12 12:47:55;;;;;;;0.60;0.45;;;30.90;94.60;;;;;;5043235;28;20090;-72
2022/07/12 12:50:41;;;;;;;1.98;0.60;;;31.10;94.80;;;;;;5059418;28;20053;-71
2022/07/12 12:53:15;;;;;;;0.88;0.60;;;31.20;93.70;;;;;;5075425;28;20084;-72
2022/07/12 12:55:43;;;;;;;1.90;0.75;;;31.30;93.90;;;;;;5076818;28;20067;-72
2022/07/12 12:58:09;;;;;;;1.10;0.60;;;31.00;94.30;;;;;;5059364;28;20195;-72